createdAt,value
2023-01-29T00:00:23.970Z,26.05
2023-01-29T00:02:50.549Z,24.55
2023-01-29T00:05:27.625Z,20.75
2023-01-29T00:07:56.193Z,21.98
2023-01-29T00:10:24.230Z,25.98
2023-01-29T00:12:51.679Z,21.40
2023-01-29T00:15:18.629Z,22.50
2023-01-29T00:17:45.167Z,22.35
2023-01-29T00:20:12.028Z,25.58
2023-01-29T00:22:38.515Z,23.75
2023-01-29T00:25:05.468Z,26.65
2023-01-29T00:27:31.965Z,21.92
2023-01-29T00:30:12.661Z,20.23
2023-01-29T00:32:42.557Z,22.15
2023-01-29T00:35:09.657Z,19.73
2023-01-29T00:37:36.147Z,20.55
2023-01-29T00:40:03.187Z,20.77
2023-01-29T00:42:48.381Z,20.38
2023-01-29T00:45:15.158Z,22.58
2023-01-29T00:47:41.680Z,22.13
2023-01-29T00:50:10.992Z,19.63
2023-01-29T00:52:37.907Z,20.15
2023-01-29T00:55:06.192Z,18.02
2023-01-29T00:57:34.427Z,21.42
2023-01-29T01:00:01.748Z,22.30
2023-01-29T01:02:46.901Z,20.65
2023-01-29T01:05:19.523Z,24.73
2023-01-29T01:07:51.762Z,23.88
2023-01-29T01:10:30.833Z,20.77
2023-01-29T01:13:07.161Z,20.50
2023-01-29T01:15:39.876Z,19.17
2023-01-29T01:18:06.680Z,20.67
2023-01-29T01:20:34.785Z,18.00
2023-01-29T01:23:01.341Z,19.13
2023-01-29T01:25:27.947Z,20.95
2023-01-29T01:27:56.221Z,19.80
2023-01-29T01:30:23.691Z,21.98
2023-01-29T01:32:50.711Z,21.67
2023-01-29T01:35:17.357Z,20.13
2023-01-29T01:37:43.881Z,19.30
2023-01-29T01:40:20.326Z,24.67
2023-01-29T01:42:52.324Z,21.88
2023-01-29T01:45:33.144Z,21.38
2023-01-29T01:48:17.303Z,21.20
2023-01-29T01:50:52.190Z,18.23
2023-01-29T01:53:26.651Z,23.05
2023-01-29T01:55:59.020Z,22.30
2023-01-29T01:58:47.803Z,21.65
2023-01-29T02:01:14.531Z,26.48
2023-01-29T02:04:12.501Z,20.83
2023-01-29T02:06:59.282Z,19.80
2023-01-29T02:09:31.439Z,22.55
2023-01-29T02:11:58.025Z,18.45
2023-01-29T02:14:25.411Z,19.20
2023-01-29T02:16:52.064Z,22.33
2023-01-29T02:19:35.559Z,18.58
2023-01-29T02:22:25.697Z,20.63
2023-01-29T02:25:09.672Z,20.05
2023-01-29T02:27:48.397Z,21.63
2023-01-29T02:30:36.188Z,18.75
2023-01-29T02:33:22.143Z,18.98
2023-01-29T02:35:56.628Z,19.05
2023-01-29T02:38:36.261Z,20.30
2023-01-29T02:41:20.837Z,20.50
2023-01-29T02:44:13.159Z,17.40
2023-01-29T02:46:54.904Z,20.10
2023-01-29T02:49:48.138Z,20.30
2023-01-29T02:52:19.174Z,19.42
2023-01-29T02:55:04.744Z,20.50
2023-01-29T02:57:39.215Z,19.85
2023-01-29T03:00:19.493Z,21.98
2023-01-29T03:03:03.632Z,21.38
2023-01-29T03:05:51.037Z,19.00
2023-01-29T03:08:23.651Z,24.00
2023-01-29T03:11:03.189Z,18.83
2023-01-29T03:14:13.302Z,18.23
2023-01-29T03:16:53.829Z,21.63
2023-01-29T03:19:29.035Z,23.58
2023-01-29T03:22:01.562Z,19.02
2023-01-29T03:24:53.128Z,22.77
2023-01-29T03:27:41.539Z,18.70
2023-01-29T03:30:31.343Z,18.38
2023-01-29T03:33:02.451Z,22.02
2023-01-29T03:35:36.422Z,23.05
2023-01-29T03:38:05.459Z,20.67
2023-01-29T03:40:40.158Z,16.90
2023-01-29T03:43:13.323Z,20.33
2023-01-29T03:45:55.355Z,20.98
2023-01-29T03:48:39.979Z,18.45
2023-01-29T03:51:13.810Z,18.25
2023-01-29T03:53:58.581Z,17.00
2023-01-29T03:56:51.703Z,19.15
2023-01-29T03:59:25.668Z,18.80
2023-01-29T04:01:57.239Z,20.35
2023-01-29T04:04:28.265Z,23.90
2023-01-29T04:07:00.579Z,18.48
2023-01-29T04:09:43.429Z,20.50
2023-01-29T04:12:12.106Z,24.17
2023-01-29T04:14:39.387Z,18.67
2023-01-29T04:17:15.787Z,20.13
2023-01-29T04:19:42.873Z,21.42
2023-01-29T04:22:19.683Z,21.17
2023-01-29T04:24:48.403Z,21.25
2023-01-29T04:27:21.155Z,20.48
2023-01-29T04:29:56.381Z,21.02
2023-01-29T04:32:54.758Z,26.80
2023-01-29T04:35:53.617Z,17.95
2023-01-29T04:38:51.883Z,21.63
2023-01-29T04:41:33.531Z,20.95
2023-01-29T04:44:50.723Z,19.20
2023-01-29T04:47:50.473Z,22.50
2023-01-29T04:50:28.649Z,20.33
2023-01-29T04:53:07.185Z,20.42
2023-01-29T04:55:45.272Z,23.52
2023-01-29T04:58:21.573Z,21.42
2023-01-29T05:00:53.462Z,20.85
2023-01-29T05:03:24.416Z,20.20
2023-01-29T05:05:51.291Z,21.27
2023-01-29T05:08:21.482Z,22.20
2023-01-29T05:10:49.796Z,22.42
2023-01-29T05:13:18.900Z,22.40
2023-01-29T05:15:52.418Z,21.05
2023-01-29T05:18:19.332Z,29.73
2023-01-29T05:20:47.788Z,22.88
2023-01-29T05:23:18.956Z,22.20
2023-01-29T05:25:46.409Z,21.92
2023-01-29T05:28:18.985Z,20.67
2023-01-29T05:30:48.078Z,24.85
2023-01-29T05:33:29.018Z,25.35
2023-01-29T05:35:58.160Z,20.08
2023-01-29T05:38:24.783Z,19.80
2023-01-29T05:40:51.318Z,25.45
2023-01-29T05:43:23.115Z,19.90
2023-01-29T05:45:58.715Z,21.20
2023-01-29T05:48:29.302Z,24.08
2023-01-29T05:51:03.279Z,23.20
2023-01-29T05:53:31.216Z,24.48
2023-01-29T05:56:01.376Z,24.25
2023-01-29T05:58:28.009Z,19.73
2023-01-29T06:00:54.549Z,26.48
2023-01-29T06:03:21.013Z,25.10
2023-01-29T06:05:47.491Z,24.20
2023-01-29T06:08:13.984Z,23.38
2023-01-29T06:10:40.545Z,25.45
2023-01-29T06:13:07.881Z,20.77
2023-01-29T06:15:34.378Z,23.33
2023-01-29T06:18:00.851Z,26.88
2023-01-29T06:20:27.391Z,24.20
2023-01-29T06:22:53.902Z,22.85
2023-01-29T06:25:20.388Z,26.08
2023-01-29T06:27:50.633Z,27.23
2023-01-29T06:30:17.665Z,28.65
2023-01-29T06:32:44.320Z,23.00
2023-01-29T06:35:10.983Z,25.60
2023-01-29T06:37:37.723Z,19.20
2023-01-29T06:40:04.712Z,22.92
2023-01-29T06:42:31.503Z,22.50
2023-01-29T06:44:58.013Z,29.27
2023-01-29T06:47:24.988Z,28.25
2023-01-29T06:49:52.302Z,25.58
2023-01-29T06:52:19.018Z,24.75
2023-01-29T06:54:45.999Z,25.13
2023-01-29T06:57:12.526Z,24.33
2023-01-29T06:59:39.011Z,22.48
2023-01-29T07:02:05.552Z,25.02
2023-01-29T07:04:32.149Z,27.60
2023-01-29T07:07:01.710Z,24.98
2023-01-29T07:09:28.198Z,24.13
2023-01-29T07:11:54.840Z,24.90
2023-01-29T07:14:21.302Z,24.48
2023-01-29T07:16:47.809Z,25.25
2023-01-29T07:19:14.572Z,27.33
2023-01-29T07:21:41.043Z,27.42
2023-01-29T07:24:07.874Z,25.55
2023-01-29T07:26:34.361Z,26.30
2023-01-29T07:29:00.864Z,22.67
2023-01-29T07:31:27.533Z,25.40
2023-01-29T07:33:54.044Z,21.80
2023-01-29T07:36:20.585Z,23.98
2023-01-29T07:38:51.016Z,24.50
2023-01-29T07:41:17.607Z,28.48
2023-01-29T07:43:44.135Z,25.52
2023-01-29T07:46:10.722Z,29.05
2023-01-29T07:48:37.290Z,21.30
2023-01-29T07:51:05.173Z,27.95
2023-01-29T07:53:33.508Z,25.48
2023-01-29T07:56:00.447Z,30.05
2023-01-29T07:58:26.979Z,26.90
2023-01-29T08:00:53.511Z,29.88
2023-01-29T08:03:20.263Z,27.13
2023-01-29T08:05:47.433Z,27.63
2023-01-29T08:08:14.374Z,26.92
2023-01-29T08:10:41.575Z,22.88
2023-01-29T08:13:08.207Z,24.42
2023-01-29T08:15:37.941Z,26.92
2023-01-29T08:18:05.995Z,27.98
2023-01-29T08:20:32.684Z,28.30
2023-01-29T08:23:05.877Z,25.75
2023-01-29T08:25:32.880Z,32.65
2023-01-29T08:28:00.490Z,29.92
2023-01-29T08:30:29.844Z,31.27
2023-01-29T08:32:56.628Z,33.92
2023-01-29T08:35:23.784Z,36.13
2023-01-29T08:38:02.016Z,32.47
2023-01-29T08:40:31.617Z,32.70
2023-01-29T08:43:02.054Z,39.53
2023-01-29T08:45:30.447Z,29.25
2023-01-29T08:47:57.346Z,39.65
2023-01-29T08:50:24.150Z,36.45
2023-01-29T08:52:50.770Z,44.20
2023-01-29T08:55:17.718Z,39.47
2023-01-29T08:57:44.475Z,40.58
2023-01-29T09:00:11.787Z,43.72
2023-01-29T09:02:38.332Z,48.80
2023-01-29T09:05:05.554Z,41.58
2023-01-29T09:07:32.934Z,40.10
2023-01-29T09:09:59.595Z,46.20
2023-01-29T09:12:26.258Z,48.17
2023-01-29T09:14:52.884Z,48.53
2023-01-29T09:17:19.612Z,47.95
2023-01-29T09:19:46.357Z,43.80
2023-01-29T09:22:12.939Z,43.65
2023-01-29T09:24:39.537Z,44.75
2023-01-29T09:27:06.193Z,44.58
2023-01-29T09:29:35.680Z,44.60
2023-01-29T09:32:04.351Z,47.72
2023-01-29T09:34:30.867Z,43.30
2023-01-29T09:36:57.394Z,48.42
2023-01-29T09:39:23.886Z,44.17
2023-01-29T09:42:08.157Z,45.45
2023-01-29T09:44:47.012Z,41.22
2023-01-29T09:47:16.935Z,44.45
2023-01-29T09:49:55.301Z,48.10
2023-01-29T09:52:32.543Z,36.22
2023-01-29T09:55:23.049Z,43.83
2023-01-29T09:57:53.260Z,44.90
2023-01-29T10:00:57.681Z,41.67
2023-01-29T10:03:34.912Z,40.88
2023-01-29T10:06:23.316Z,44.97
2023-01-29T10:12:02.565Z,28.75
2023-01-29T10:14:59.559Z,40.17
2023-01-29T10:17:35.374Z,37.00
2023-01-29T10:20:26.317Z,35.33
2023-01-29T10:23:02.307Z,39.90
2023-01-29T10:25:28.989Z,29.30
2023-01-29T10:27:59.021Z,32.60
2023-01-29T10:30:35.755Z,30.05
2023-01-29T10:33:06.117Z,33.85
2023-01-29T10:35:42.089Z,19.65
2023-01-29T10:38:34.187Z,29.45
2023-01-29T10:41:21.219Z,31.02
2023-01-29T10:44:15.254Z,36.47
2023-01-29T10:47:14.241Z,28.77
2023-01-29T10:49:40.720Z,34.47
2023-01-29T10:52:22.821Z,23.13
2023-01-29T10:55:03.341Z,29.23
2023-01-29T10:57:51.394Z,27.42
2023-01-29T11:00:26.255Z,30.63
2023-01-29T11:02:53.165Z,25.83
2023-01-29T11:05:31.945Z,30.65
2023-01-29T11:08:12.749Z,27.23
2023-01-29T11:10:47.886Z,21.77
2023-01-29T11:13:16.237Z,28.98
2023-01-29T11:15:43.505Z,29.27
2023-01-29T11:18:15.526Z,28.80
2023-01-29T11:20:44.424Z,28.50
2023-01-29T11:23:30.057Z,30.13
2023-01-29T11:25:58.790Z,29.05
2023-01-29T11:28:38.932Z,26.35
2023-01-29T11:31:29.333Z,27.50
2023-01-29T11:34:22.234Z,24.92
2023-01-29T11:37:00.822Z,29.10
2023-01-29T11:39:28.964Z,28.20
2023-01-29T11:42:01.196Z,27.35
2023-01-29T11:44:32.819Z,24.98
2023-01-29T11:47:26.180Z,26.25
2023-01-29T11:49:55.315Z,26.02
2023-01-29T11:52:25.526Z,28.35
2023-01-29T11:54:59.944Z,27.17
2023-01-29T11:57:35.610Z,28.52
2023-01-29T12:00:24.916Z,27.10
2023-01-29T12:03:01.368Z,27.30
2023-01-29T12:05:28.209Z,25.75
2023-01-29T12:07:59.912Z,24.75
2023-01-29T12:10:38.608Z,25.98
2023-01-29T12:13:06.702Z,29.40
2023-01-29T12:15:33.509Z,29.73
2023-01-29T12:18:06.269Z,22.98
2023-01-29T12:20:45.225Z,27.85
2023-01-29T12:23:30.868Z,22.40
2023-01-29T12:26:27.535Z,23.70
2023-01-29T12:29:19.098Z,24.38
2023-01-29T12:32:06.819Z,26.15
2023-01-29T12:34:43.478Z,24.77
2023-01-29T12:37:30.400Z,25.20
2023-01-29T12:39:56.923Z,25.25
2023-01-29T12:42:24.480Z,27.45
2023-01-29T12:45:00.364Z,24.73
2023-01-29T12:47:30.767Z,25.05
2023-01-29T12:50:03.105Z,27.73
2023-01-29T12:52:48.126Z,22.80
2023-01-29T12:55:26.822Z,23.63
2023-01-29T12:57:58.528Z,24.40
2023-01-29T13:00:40.209Z,23.40
2023-01-29T13:03:19.480Z,24.45
2023-01-29T13:05:49.109Z,30.05
2023-01-29T13:08:34.232Z,25.27
2023-01-29T13:11:06.544Z,26.90
2023-01-29T13:13:42.753Z,28.42
2023-01-29T13:16:13.777Z,27.55
2023-01-29T13:18:42.297Z,26.77
2023-01-29T13:21:15.344Z,30.38
2023-01-29T13:23:46.931Z,23.58
2023-01-29T13:26:18.024Z,23.90
2023-01-29T13:28:45.585Z,25.10
2023-01-29T13:31:25.525Z,22.55
2023-01-29T13:34:04.623Z,25.52
2023-01-29T13:36:32.084Z,26.35
2023-01-29T13:39:03.990Z,24.77
2023-01-29T13:41:35.987Z,23.63
2023-01-29T13:44:05.797Z,23.65
2023-01-29T13:46:32.742Z,24.80
2023-01-29T13:49:04.732Z,26.58
2023-01-29T13:51:36.396Z,23.63
2023-01-29T13:54:08.771Z,23.67
2023-01-29T13:56:35.338Z,25.65
2023-01-29T13:59:05.262Z,23.33
2023-01-29T14:04:21.535Z,23.60
2023-01-29T14:06:51.530Z,26.05
2023-01-29T14:09:37.168Z,25.48
2023-01-29T14:12:24.896Z,24.08
2023-01-29T14:15:04.184Z,24.23
2023-01-29T14:17:31.028Z,22.65
2023-01-29T14:20:03.828Z,22.67
2023-01-29T14:22:33.814Z,28.80
2023-01-29T14:25:04.719Z,26.83
2023-01-29T14:27:32.377Z,23.20
2023-01-29T14:30:02.471Z,23.27
2023-01-29T14:32:29.871Z,22.65
2023-01-29T14:35:09.892Z,29.63
2023-01-29T14:37:41.472Z,25.10
2023-01-29T14:40:19.828Z,21.63
2023-01-29T14:43:06.590Z,24.75
2023-01-29T14:45:35.239Z,27.80
2023-01-29T14:48:11.023Z,23.85
2023-01-29T14:50:41.985Z,28.35
2023-01-29T14:53:27.505Z,31.05
2023-01-29T14:56:12.080Z,30.13
2023-01-29T14:58:43.508Z,24.13
2023-01-29T15:01:25.185Z,29.70
2023-01-29T15:04:20.946Z,29.63
2023-01-29T15:06:53.045Z,27.95
2023-01-29T15:09:39.054Z,29.27
2023-01-29T15:12:15.431Z,27.95
2023-01-29T15:14:52.019Z,30.00
2023-01-29T15:17:28.396Z,25.08
2023-01-29T15:19:57.270Z,32.88
2023-01-29T15:22:26.066Z,28.23
2023-01-29T15:25:12.952Z,32.85
2023-01-29T15:27:44.465Z,29.55
2023-01-29T15:30:17.699Z,26.88
2023-01-29T15:32:44.989Z,27.23
2023-01-29T15:35:24.429Z,28.85
2023-01-29T15:38:06.068Z,27.60
2023-01-29T15:40:33.105Z,31.02
2023-01-29T15:43:00.089Z,27.90
2023-01-29T15:45:31.844Z,34.92
2023-01-29T15:48:06.975Z,27.85
2023-01-29T15:50:39.205Z,26.10
2023-01-29T15:53:09.515Z,28.88
2023-01-29T15:55:36.431Z,26.67
2023-01-29T15:58:03.675Z,28.95
2023-01-29T16:00:30.617Z,24.80
2023-01-29T16:03:00.526Z,28.17
2023-01-29T16:05:32.833Z,26.63
2023-01-29T16:08:00.684Z,24.67
2023-01-29T16:10:30.360Z,17.95
2023-01-29T16:12:58.079Z,29.58
2023-01-29T16:15:32.855Z,27.40
2023-01-29T16:18:01.199Z,26.17
2023-01-29T16:20:35.018Z,25.30
2023-01-29T16:23:02.372Z,25.85
2023-01-29T16:25:30.641Z,25.52
2023-01-29T16:27:58.516Z,25.25
2023-01-29T16:30:27.795Z,28.65
2023-01-29T16:33:02.618Z,26.05
2023-01-29T16:35:29.401Z,28.42
2023-01-29T16:38:03.227Z,28.70
2023-01-29T16:40:33.389Z,31.75
2023-01-29T16:43:15.208Z,31.45
2023-01-29T16:45:41.765Z,28.60
2023-01-29T16:48:32.017Z,30.77
2023-01-29T16:51:12.528Z,26.90
2023-01-29T16:53:39.429Z,30.92
2023-01-29T16:56:08.163Z,30.95
2023-01-29T16:58:35.448Z,32.75
2023-01-29T17:01:07.253Z,29.83
2023-01-29T17:03:35.583Z,28.52
2023-01-29T17:06:13.555Z,31.45
2023-01-29T17:08:43.594Z,28.48
2023-01-29T17:11:14.012Z,26.40
2023-01-29T17:13:44.407Z,30.65
2023-01-29T17:16:20.909Z,30.27
2023-01-29T17:18:47.630Z,31.15
2023-01-29T17:21:14.165Z,28.13
2023-01-29T17:23:40.757Z,26.55
2023-01-29T17:26:30.946Z,26.45
2023-01-29T17:29:00.721Z,21.52
2023-01-29T17:31:27.891Z,29.25
2023-01-29T17:33:54.534Z,45.78
2023-01-29T17:36:21.561Z,29.98
2023-01-29T17:38:48.300Z,33.60
2023-01-29T17:41:31.451Z,26.33
2023-01-29T17:43:58.016Z,30.20
2023-01-29T17:46:24.533Z,24.70
2023-01-29T17:48:51.066Z,30.88
2023-01-29T17:51:18.253Z,36.72
2023-01-29T17:53:46.985Z,31.15
2023-01-29T17:56:30.551Z,15.80
2023-01-29T17:58:57.136Z,32.30
2023-01-29T18:01:23.866Z,33.38
2023-01-29T18:03:50.473Z,38.38
2023-01-29T18:06:29.707Z,36.97
2023-01-29T18:08:56.675Z,25.13
2023-01-29T18:11:23.980Z,31.90
2023-01-29T18:13:50.484Z,37.30
2023-01-29T18:16:18.468Z,33.25
2023-01-29T18:18:45.053Z,32.10
2023-01-29T18:21:11.595Z,38.13
2023-01-29T18:23:38.204Z,40.35
2023-01-29T18:26:06.000Z,34.72
2023-01-29T18:28:33.104Z,39.00
2023-01-29T18:31:05.330Z,35.63
2023-01-29T18:33:34.143Z,43.70
2023-01-29T18:36:00.855Z,26.27
2023-01-29T18:38:27.712Z,39.08
2023-01-29T18:41:01.919Z,40.13
2023-01-29T18:43:28.598Z,41.92
2023-01-29T18:45:59.888Z,32.75
2023-01-29T18:48:26.679Z,32.08
2023-01-29T18:50:53.420Z,43.10
2023-01-29T18:53:20.334Z,46.65
2023-01-29T18:56:04.084Z,44.35
2023-01-29T18:58:35.638Z,43.75
2023-01-29T19:01:07.061Z,40.97
2023-01-29T19:03:33.707Z,46.38
2023-01-29T19:06:02.079Z,51.97
2023-01-29T19:08:29.508Z,37.97
2023-01-29T19:10:56.503Z,47.30
2023-01-29T19:13:23.084Z,51.53
2023-01-29T19:15:49.573Z,44.45
2023-01-29T19:18:16.082Z,42.83
2023-01-29T19:20:42.600Z,43.28
2023-01-29T19:23:09.507Z,50.13
2023-01-29T19:25:38.645Z,45.15
2023-01-29T19:28:07.229Z,51.40
2023-01-29T19:30:33.780Z,47.10
2023-01-29T19:33:00.562Z,33.88
2023-01-29T19:35:27.296Z,45.20
2023-01-29T19:37:54.392Z,50.97
2023-01-29T19:40:21.042Z,42.42
2023-01-29T19:42:48.106Z,46.60
2023-01-29T19:45:15.067Z,43.15
2023-01-29T19:47:43.227Z,46.15
2023-01-29T19:50:10.955Z,50.33
2023-01-29T19:52:53.011Z,48.15
2023-01-29T19:55:21.005Z,29.83
2023-01-29T19:57:47.877Z,50.20
2023-01-29T20:00:17.311Z,47.78
2023-01-29T20:02:43.838Z,48.22
2023-01-29T20:05:12.463Z,52.83
2023-01-29T20:07:41.086Z,41.63
2023-01-29T20:10:11.286Z,49.22
2023-01-29T20:12:38.431Z,46.83
2023-01-29T20:15:05.328Z,58.60
2023-01-29T20:17:31.857Z,48.00
2023-01-29T20:19:58.372Z,44.92
2023-01-29T20:22:26.378Z,50.72
2023-01-29T20:24:53.129Z,43.42
2023-01-29T20:27:19.990Z,56.53
2023-01-29T20:29:46.603Z,41.78
2023-01-29T20:32:14.478Z,58.47
2023-01-29T20:34:41.355Z,46.65
2023-01-29T20:37:07.889Z,50.25
2023-01-29T20:39:34.414Z,51.75
2023-01-29T20:42:00.891Z,43.97
2023-01-29T20:44:27.540Z,45.47
2023-01-29T20:46:54.153Z,48.50
2023-01-29T20:49:21.738Z,50.90
2023-01-29T20:51:48.262Z,46.28
2023-01-29T20:54:14.938Z,43.22
2023-01-29T20:56:42.461Z,45.80
2023-01-29T20:59:10.137Z,46.53
2023-01-29T21:01:36.743Z,45.28
2023-01-29T21:04:03.473Z,45.55
2023-01-29T21:06:30.636Z,51.65
2023-01-29T21:08:57.289Z,49.58
2023-01-29T21:11:23.866Z,46.72
2023-01-29T21:13:53.101Z,21.45
2023-01-29T21:16:19.703Z,52.50
2023-01-29T21:18:46.206Z,45.65
2023-01-29T21:21:12.709Z,46.38
2023-01-29T21:23:39.213Z,49.75
2023-01-29T21:26:06.878Z,51.53
2023-01-29T21:28:33.826Z,37.25
2023-01-29T21:31:10.042Z,46.58
2023-01-29T21:33:37.043Z,51.13
2023-01-29T21:36:04.060Z,48.75
2023-01-29T21:38:30.569Z,48.95
2023-01-29T21:41:01.536Z,47.33
2023-01-29T21:43:28.059Z,52.05
2023-01-29T21:45:59.223Z,36.00
2023-01-29T21:48:26.659Z,39.13
2023-01-29T21:50:53.312Z,50.00
2023-01-29T21:53:20.059Z,40.88
2023-01-29T21:55:47.034Z,47.28
2023-01-29T21:58:14.669Z,46.90
2023-01-29T22:00:41.484Z,39.47
2023-01-29T22:03:08.048Z,49.30
2023-01-29T22:05:34.720Z,38.25
2023-01-29T22:08:01.376Z,50.38
2023-01-29T22:10:28.847Z,44.25
2023-01-29T22:12:55.543Z,49.10
2023-01-29T22:15:23.903Z,41.83
2023-01-29T22:17:50.883Z,45.55
2023-01-29T22:20:17.896Z,47.28
2023-01-29T22:22:44.655Z,47.88
2023-01-29T22:25:11.557Z,52.25
2023-01-29T22:27:38.069Z,52.35
2023-01-29T22:30:05.584Z,50.30
2023-01-29T22:32:32.758Z,47.70
2023-01-29T22:34:59.298Z,46.55
2023-01-29T22:37:25.793Z,40.92
2023-01-29T22:39:52.352Z,40.28
2023-01-29T22:42:20.375Z,43.55
2023-01-29T22:44:48.052Z,45.15
2023-01-29T22:47:15.030Z,47.63
2023-01-29T22:49:41.558Z,39.45
2023-01-29T22:52:11.026Z,37.75
2023-01-29T22:54:39.843Z,40.83
2023-01-29T22:57:09.911Z,32.33
2023-01-29T22:59:36.874Z,34.03
2023-01-29T23:02:03.858Z,35.75
2023-01-29T23:04:30.617Z,42.15
2023-01-29T23:06:58.257Z,45.08
2023-01-29T23:09:25.190Z,36.55
2023-01-29T23:11:52.033Z,43.58
2023-01-29T23:14:18.900Z,40.58
2023-01-29T23:16:45.638Z,40.33
2023-01-29T23:19:12.371Z,37.65
2023-01-29T23:21:39.755Z,38.63
2023-01-29T23:24:07.922Z,38.92
2023-01-29T23:26:53.299Z,41.22
2023-01-29T23:29:20.458Z,38.92
2023-01-29T23:31:47.457Z,39.88
2023-01-29T23:34:15.102Z,27.65
2023-01-29T23:36:42.509Z,32.28
2023-01-29T23:39:09.548Z,38.13
2023-01-29T23:41:36.313Z,35.83
2023-01-29T23:44:03.677Z,35.25
2023-01-29T23:46:31.063Z,34.80
2023-01-29T23:48:57.815Z,32.13
2023-01-29T23:51:24.499Z,34.53
2023-01-29T23:53:51.279Z,39.05
2023-01-29T23:56:18.094Z,44.00
2023-01-29T23:58:45.011Z,35.13
